Weather at Divača Airfield

Public forecast

Using degrees Celsius for public forecast. Weather courtesy of forecast.io.

Closest aviation weather report (METAR) to Divača Airfield

Closest report is Portorož Airport, 20.6 nm (38.2 km) SW.

2024/05/25 18:00 (retrieved 32 minutes ago)

LJPZ 251800Z VRB01KT CAVOK 22/13 Q1015

Closest aviation forecast (TAF) to Divača Airfield

Closest forecast is Trieste–Friuli Venezia Giulia Airport, 23.9 nm (44.2 km) WNW.

2024/05/25 18:21 (retrieved 11 minutes ago)

TAF LIPQ 251700Z 2518/2618 VRB05KT 9999 SCT040 TEMPO 2612/2616 SHRA